createdAt,value
2023-01-24T00:00:24.120Z,102879.43
2023-01-24T00:01:25.912Z,102887.14
2023-01-24T00:02:28.710Z,102886.27
2023-01-24T00:03:30.644Z,102882.12
2023-01-24T00:04:32.462Z,102879.93
2023-01-24T00:05:34.256Z,102888.45
2023-01-24T00:06:36.161Z,102880.84
2023-01-24T00:07:38.992Z,102885.72
2023-01-24T00:08:40.784Z,102874.52
2023-01-24T00:09:42.612Z,102879.66
2023-01-24T00:10:44.408Z,102880.58
2023-01-24T00:11:46.214Z,102874.52
2023-01-24T00:12:48.008Z,102870.14
2023-01-24T00:13:49.812Z,102875.17
2023-01-24T00:14:51.626Z,102868.26
2023-01-24T00:15:53.564Z,102874.17
2023-01-24T00:16:55.352Z,102872.59
2023-01-24T00:17:57.126Z,102875.97
2023-01-24T00:18:58.918Z,102887.03
2023-01-24T00:20:00.757Z,102870.59
2023-01-24T00:21:02.580Z,102868.91
2023-01-24T00:22:04.365Z,102879.08
2023-01-24T00:23:06.150Z,102874.05
2023-01-24T00:24:08.003Z,102879.96
2023-01-24T00:25:09.801Z,102874.70
2023-01-24T00:26:11.799Z,102871.25
2023-01-24T00:27:13.596Z,102873.94
2023-01-24T00:28:15.388Z,102873.94
2023-01-24T00:29:17.205Z,102864.53
2023-01-24T00:30:19.091Z,102871.72
2023-01-24T00:31:21.047Z,102877.09
2023-01-24T00:32:22.861Z,102868.76
2023-01-24T00:33:24.643Z,102870.45
2023-01-24T00:34:26.491Z,102873.13
2023-01-24T00:35:28.345Z,102876.70
2023-01-24T00:36:30.227Z,102861.43
2023-01-24T00:37:32.014Z,102876.70
2023-01-24T00:38:33.827Z,102880.05
2023-01-24T00:39:35.641Z,102878.51
2023-01-24T00:40:37.445Z,102878.51
2023-01-24T00:41:39.330Z,102876.47
2023-01-24T00:42:41.142Z,102871.33
2023-01-24T00:43:42.940Z,102877.36
2023-01-24T00:44:44.735Z,102873.13
2023-01-24T00:45:46.556Z,102875.83
2023-01-24T00:46:48.429Z,102875.94
2023-01-24T00:47:50.242Z,102868.98
2023-01-24T00:48:52.051Z,102880.97
2023-01-24T00:49:54.143Z,102876.05
2023-01-24T00:50:56.101Z,102883.77
2023-01-24T00:51:58.007Z,102879.52
2023-01-24T00:52:59.787Z,102874.37
2023-01-24T00:54:01.578Z,102874.37
2023-01-24T00:55:03.373Z,102876.17
2023-01-24T00:56:05.414Z,102879.20
2023-01-24T00:57:07.223Z,102878.05
2023-01-24T00:58:09.017Z,102879.74
2023-01-24T00:59:10.812Z,102869.45
2023-01-24T01:00:12.924Z,102872.25
2023-01-24T01:01:14.748Z,102875.72
2023-01-24T01:02:16.598Z,102868.11
2023-01-24T01:03:18.396Z,102880.32
2023-01-24T01:04:20.167Z,102874.17
2023-01-24T01:05:22.187Z,102878.41
2023-01-24T01:06:24.289Z,102868.80
2023-01-24T01:07:26.073Z,102870.45
2023-01-24T01:08:27.881Z,102872.14
2023-01-24T01:09:29.667Z,102876.40
2023-01-24T01:10:31.591Z,102873.95
2023-01-24T01:11:33.502Z,102868.00
2023-01-24T01:12:35.286Z,102874.83
2023-01-24T01:13:37.092Z,102878.41
2023-01-24T01:14:38.886Z,102868.91
2023-01-24T01:15:40.701Z,102871.60
2023-01-24T01:16:42.617Z,102865.77
2023-01-24T01:17:45.087Z,102873.48
2023-01-24T01:18:46.869Z,102869.26
2023-01-24T01:19:48.655Z,102872.95
2023-01-24T01:20:50.462Z,102861.77
2023-01-24T01:21:52.300Z,102867.80
2023-01-24T01:22:54.084Z,102876.33
2023-01-24T01:23:55.886Z,102864.23
2023-01-24T01:24:57.692Z,102860.73
2023-01-24T01:25:59.474Z,102872.83
2023-01-24T01:27:01.423Z,102867.57
2023-01-24T01:28:03.214Z,102872.72
2023-01-24T01:29:05.007Z,102872.72
2023-01-24T01:30:07.424Z,102871.72
2023-01-24T01:31:09.265Z,102871.72
2023-01-24T01:32:11.181Z,102872.72
2023-01-24T01:33:13.303Z,102875.29
2023-01-24T01:34:15.100Z,102871.95
2023-01-24T01:35:16.893Z,102870.26
2023-01-24T01:36:18.722Z,102872.83
2023-01-24T01:37:20.532Z,102872.95
2023-01-24T01:38:22.329Z,102876.17
2023-01-24T01:39:24.129Z,102871.83
2023-01-24T01:40:25.939Z,102872.38
2023-01-24T01:41:27.738Z,102878.28
2023-01-24T01:42:29.579Z,102871.38
2023-01-24T01:43:31.390Z,102872.14
2023-01-24T01:44:33.213Z,102870.34
2023-01-24T01:45:35.062Z,102867.53
2023-01-24T01:46:36.825Z,102866.77
2023-01-24T01:47:38.651Z,102871.80
2023-01-24T01:48:40.569Z,102869.22
2023-01-24T01:49:42.348Z,102876.82
2023-01-24T01:50:44.161Z,102871.33
2023-01-24T01:51:45.957Z,102871.33
2023-01-24T01:52:47.782Z,102868.76
2023-01-24T01:53:49.794Z,102880.58
2023-01-24T01:54:51.585Z,102881.62
2023-01-24T01:55:53.388Z,102873.78
2023-01-24T01:56:55.291Z,102878.92
2023-01-24T01:57:57.115Z,102879.93
2023-01-24T01:58:58.927Z,102879.81
2023-01-24T02:00:00.728Z,102880.58
2023-01-24T02:01:02.547Z,102871.95
2023-01-24T02:02:04.417Z,102877.86
2023-01-24T02:03:07.648Z,102873.63
2023-01-24T02:04:09.552Z,102882.23
2023-01-24T02:05:11.377Z,102884.95
2023-01-24T02:06:13.263Z,102880.58
2023-01-24T02:07:15.061Z,102884.69
2023-01-24T02:08:16.951Z,102875.44
2023-01-24T02:09:18.747Z,102877.24
2023-01-24T02:10:20.547Z,102881.62
2023-01-24T02:11:22.356Z,102884.95
2023-01-24T02:12:24.142Z,102887.53
2023-01-24T02:13:25.965Z,102879.66
2023-01-24T02:14:27.754Z,102889.22
2023-01-24T02:15:29.562Z,102877.36
2023-01-24T02:16:31.492Z,102885.88
2023-01-24T02:17:33.237Z,102884.80
2023-01-24T02:18:35.068Z,102876.86
2023-01-24T02:19:37.053Z,102888.15
2023-01-24T02:20:38.962Z,102888.83
2023-01-24T02:21:40.739Z,102881.12
2023-01-24T02:22:42.536Z,102881.65
2023-01-24T02:23:44.430Z,102886.80
2023-01-24T02:24:46.329Z,102893.86
2023-01-24T02:25:48.106Z,102889.48
2023-01-24T02:26:49.887Z,102892.17
2023-01-24T02:27:51.694Z,102894.09
2023-01-24T02:28:53.541Z,102892.17
2023-01-24T02:29:55.316Z,102886.14
2023-01-24T02:30:57.303Z,102888.59
2023-01-24T02:31:59.135Z,102891.94
2023-01-24T02:33:00.983Z,102892.82
2023-01-24T02:34:02.793Z,102891.94
2023-01-24T02:35:04.616Z,102886.67
2023-01-24T02:36:06.808Z,102888.48
2023-01-24T02:37:08.607Z,102892.05
2023-01-24T02:38:10.393Z,102894.51
2023-01-24T02:39:12.214Z,102892.70
2023-01-24T02:40:14.410Z,102894.51
2023-01-24T02:41:16.200Z,102888.48
2023-01-24T02:42:17.993Z,102882.42
2023-01-24T02:43:19.787Z,102885.11
2023-01-24T02:44:21.611Z,102879.96
2023-01-24T02:45:23.717Z,102893.97
2023-01-24T02:46:26.102Z,102892.94
2023-01-24T02:47:27.888Z,102887.56
2023-01-24T02:48:29.682Z,102880.65
2023-01-24T02:49:31.519Z,102888.48
2023-01-24T02:50:33.326Z,102889.48
2023-01-24T02:51:35.109Z,102881.65
2023-01-24T02:52:36.910Z,102879.84
2023-01-24T02:53:38.725Z,102883.10
2023-01-24T02:54:40.540Z,102882.06
2023-01-24T02:55:42.319Z,102881.06
2023-01-24T02:56:44.103Z,102885.20
2023-01-24T02:57:45.890Z,102885.85
2023-01-24T02:58:47.693Z,102878.79
2023-01-24T02:59:49.539Z,102875.98
2023-01-24T03:00:51.351Z,102888.84
2023-01-24T03:01:53.138Z,102883.58
2023-01-24T03:02:54.898Z,102878.31
2023-01-24T03:03:56.695Z,102885.27
2023-01-24T03:04:58.523Z,102888.59
2023-01-24T03:06:00.385Z,102884.22
2023-01-24T03:07:02.180Z,102878.96
2023-01-24T03:08:03.980Z,102886.03
2023-01-24T03:09:05.771Z,102881.53
2023-01-24T03:10:07.906Z,102885.02
2023-01-24T03:11:09.703Z,102878.08
2023-01-24T03:12:11.494Z,102883.34
2023-01-24T03:13:13.287Z,102881.53
2023-01-24T03:14:15.079Z,102874.63
2023-01-24T03:15:16.889Z,102883.98
2023-01-24T03:16:18.697Z,102877.43
2023-01-24T03:17:20.482Z,102882.45
2023-01-24T03:18:22.275Z,102879.77
2023-01-24T03:19:24.048Z,102876.16
2023-01-24T03:20:25.857Z,102886.44
2023-01-24T03:21:27.768Z,102883.87
2023-01-24T03:22:29.578Z,102876.72
2023-01-24T03:23:31.380Z,102879.94
2023-01-24T03:24:33.165Z,102885.08
2023-01-24T03:25:35.033Z,102873.91
2023-01-24T03:26:37.117Z,102886.52
2023-01-24T03:27:39.152Z,102875.85
2023-01-24T03:28:40.953Z,102881.79
2023-01-24T03:29:42.733Z,102886.02
2023-01-24T03:30:44.662Z,102889.26
2023-01-24T03:31:46.528Z,102889.14
2023-01-24T03:32:48.345Z,102889.14
2023-01-24T03:33:50.142Z,102884.64
2023-01-24T03:34:51.949Z,102879.62
2023-01-24T03:35:53.754Z,102882.96
2023-01-24T03:36:55.883Z,102880.27
2023-01-24T03:37:57.686Z,102886.33
2023-01-24T03:38:59.464Z,102883.77
2023-01-24T03:40:01.246Z,102880.27
2023-01-24T03:41:03.088Z,102883.52
2023-01-24T03:42:04.895Z,102877.22
2023-01-24T03:43:06.694Z,102880.47
2023-01-24T03:44:08.466Z,102876.09
2023-01-24T03:45:10.251Z,102882.23
2023-01-24T03:46:12.143Z,102875.57
2023-01-24T03:47:13.971Z,102884.16
2023-01-24T03:48:15.777Z,102878.91
2023-01-24T03:49:17.572Z,102883.68
2023-01-24T03:50:19.435Z,102879.83
2023-01-24T03:51:22.049Z,102872.80
2023-01-24T03:52:23.932Z,102871.12
2023-01-24T03:53:25.733Z,102873.04
2023-01-24T03:54:27.525Z,102875.85
2023-01-24T03:55:29.306Z,102878.17
2023-01-24T03:56:31.244Z,102876.50
2023-01-24T03:57:33.050Z,102878.17
2023-01-24T03:58:34.823Z,102877.26
2023-01-24T03:59:36.628Z,102878.94
2023-01-24T04:00:38.519Z,102882.52
2023-01-24T04:01:40.362Z,102887.02
2023-01-24T04:02:42.144Z,102885.33
2023-01-24T04:03:43.931Z,102888.70
2023-01-24T04:04:45.712Z,102883.31
2023-01-24T04:05:47.514Z,102895.91
2023-01-24T04:06:49.449Z,102901.94
2023-01-24T04:07:51.590Z,102892.31
2023-01-24T04:08:53.392Z,102899.89
2023-01-24T04:09:55.184Z,102905.83
2023-01-24T04:10:56.946Z,102905.03
2023-01-24T04:11:58.778Z,102905.70
2023-01-24T04:13:00.552Z,102904.78
2023-01-24T04:14:02.355Z,102907.23
2023-01-24T04:15:04.161Z,102909.03
2023-01-24T04:16:06.452Z,102908.15
2023-01-24T04:17:08.306Z,102906.34
2023-01-24T04:18:10.108Z,102907.23
2023-01-24T04:19:11.888Z,102903.13
2023-01-24T04:20:13.675Z,102909.16
2023-01-24T04:21:15.475Z,102912.36
2023-01-24T04:22:17.306Z,102910.84
2023-01-24T04:23:19.157Z,102918.42
2023-01-24T04:24:20.953Z,102917.63
2023-01-24T04:25:23.018Z,102910.96
2023-01-24T04:26:25.052Z,102920.31
2023-01-24T04:27:26.912Z,102923.80
2023-01-24T04:28:28.692Z,102922.13
2023-01-24T04:29:30.486Z,102916.86
2023-01-24T04:30:32.294Z,102923.80
2023-01-24T04:31:34.215Z,102920.44
2023-01-24T04:32:36.209Z,102922.13
2023-01-24T04:33:38.012Z,102925.45
2023-01-24T04:34:39.805Z,102921.23
2023-01-24T04:35:41.608Z,102921.11
2023-01-24T04:36:43.712Z,102922.88
2023-01-24T04:37:45.530Z,102934.20
2023-01-24T04:38:47.389Z,102930.83
2023-01-24T04:39:49.187Z,102931.63
2023-01-24T04:40:51.095Z,102932.64
2023-01-24T04:41:52.881Z,102932.00
2023-01-24T04:42:54.711Z,102932.00
2023-01-24T04:43:56.498Z,102932.24
2023-01-24T04:44:58.303Z,102939.83
2023-01-24T04:46:00.098Z,102937.13
2023-01-24T04:47:01.918Z,102935.20
2023-01-24T04:48:03.716Z,102940.98
2023-01-24T04:49:05.505Z,102929.58
2023-01-24T04:50:07.609Z,102931.26
2023-01-24T04:51:09.401Z,102933.95
2023-01-24T04:52:11.185Z,102933.03
2023-01-24T04:53:13.007Z,102939.21
2023-01-24T04:54:14.988Z,102931.38
2023-01-24T04:55:16.779Z,102944.10
2023-01-24T04:56:18.573Z,102933.58
2023-01-24T04:57:20.366Z,102943.73
2023-01-24T04:58:22.205Z,102936.66
2023-01-24T04:59:24.017Z,102940.24
2023-01-24T05:00:26.112Z,102947.58
2023-01-24T05:01:27.906Z,102949.01
2023-01-24T05:02:29.709Z,102942.83
2023-01-24T05:03:31.519Z,102943.62
2023-01-24T05:04:33.311Z,102952.34
2023-01-24T05:05:35.120Z,102954.02
2023-01-24T05:06:36.914Z,102951.20
2023-01-24T05:07:38.713Z,102945.15
2023-01-24T05:08:40.529Z,102950.41
2023-01-24T05:09:42.356Z,102956.04
2023-01-24T05:10:44.254Z,102956.04
2023-01-24T05:11:46.050Z,102959.41
2023-01-24T05:12:47.848Z,102956.84
2023-01-24T05:13:49.665Z,102955.79
2023-01-24T05:14:51.455Z,102952.97
2023-01-24T05:15:53.243Z,102950.16
2023-01-24T05:16:55.220Z,102955.84
2023-01-24T05:17:56.941Z,102957.23
2023-01-24T05:18:58.765Z,102955.59
2023-01-24T05:20:00.557Z,102961.48
2023-01-24T05:21:02.402Z,102957.23
2023-01-24T05:22:04.245Z,102957.48
2023-01-24T05:23:06.044Z,102961.34
2023-01-24T05:24:07.878Z,102964.92
2023-01-24T05:25:09.695Z,102967.49
2023-01-24T05:26:11.606Z,102967.49
2023-01-24T05:27:13.390Z,102971.07
2023-01-24T05:28:15.190Z,102969.42
2023-01-24T05:29:17.030Z,102965.94
2023-01-24T05:30:18.846Z,102978.02
2023-01-24T05:31:20.683Z,102969.17
2023-01-24T05:32:22.435Z,102976.75
2023-01-24T05:33:24.234Z,102972.25
2023-01-24T05:34:26.072Z,102969.56
2023-01-24T05:35:27.972Z,102969.44
2023-01-24T05:36:29.878Z,102972.77
2023-01-24T05:37:31.691Z,102983.03
2023-01-24T05:38:33.456Z,102980.34
2023-01-24T05:39:35.300Z,102974.95
2023-01-24T05:40:37.444Z,102977.27
2023-01-24T05:41:39.237Z,102975.45
2023-01-24T05:42:41.050Z,102968.68
2023-01-24T05:43:42.843Z,102984.97
2023-01-24T05:44:44.680Z,102981.77
2023-01-24T05:45:46.515Z,102977.93
2023-01-24T05:46:48.332Z,102979.32
2023-01-24T05:47:50.152Z,102976.38
2023-01-24T05:48:51.955Z,102969.44
2023-01-24T05:49:53.801Z,102987.27
2023-01-24T05:50:55.784Z,102978.81
2023-01-24T05:51:57.614Z,102982.27
2023-01-24T05:52:59.395Z,102980.62
2023-01-24T05:54:01.194Z,102989.96
2023-01-24T05:55:03.014Z,102988.31
2023-01-24T05:56:05.245Z,102998.58
2023-01-24T05:57:07.031Z,102990.22
2023-01-24T05:58:08.819Z,102991.27
2023-01-24T05:59:10.620Z,102992.28
2023-01-24T06:00:13.689Z,102992.53
2023-01-24T06:01:15.470Z,102991.02
2023-01-24T06:02:17.381Z,103000.62
2023-01-24T06:03:19.146Z,103006.80
2023-01-24T06:04:20.910Z,103006.92
2023-01-24T06:05:23.238Z,103008.83
2023-01-24T06:06:25.284Z,103007.31
2023-01-24T06:07:27.069Z,103006.80
2023-01-24T06:08:28.882Z,103004.36
2023-01-24T06:09:30.690Z,103012.06
2023-01-24T06:10:32.613Z,103016.15
2023-01-24T06:11:34.737Z,103009.20
2023-01-24T06:12:36.488Z,103009.75
2023-01-24T06:13:38.299Z,103013.08
2023-01-24T06:14:40.194Z,103021.53
2023-01-24T06:15:42.129Z,103015.26
2023-01-24T06:16:44.014Z,103017.57
2023-01-24T06:17:45.831Z,103014.88
2023-01-24T06:18:47.667Z,103020.89
2023-01-24T06:19:49.452Z,103020.77
2023-01-24T06:20:51.499Z,103016.68
2023-01-24T06:21:53.283Z,103016.68
2023-01-24T06:22:55.124Z,103020.39
2023-01-24T06:23:56.965Z,103017.95
2023-01-24T06:24:58.801Z,103017.32
2023-01-24T06:26:00.655Z,103015.64
2023-01-24T06:27:02.521Z,103023.47
2023-01-24T06:28:04.302Z,103021.66
2023-01-24T06:29:06.097Z,103020.64
2023-01-24T06:30:08.408Z,103025.02
2023-01-24T06:31:10.316Z,103017.20
2023-01-24T06:32:12.148Z,103015.38
2023-01-24T06:33:14.013Z,103013.58
2023-01-24T06:34:15.806Z,103019.76
2023-01-24T06:35:17.617Z,103023.08
2023-01-24T06:36:19.425Z,103022.70
2023-01-24T06:37:21.232Z,103022.31
2023-01-24T06:38:23.037Z,103019.23
2023-01-24T06:39:24.832Z,103021.02
2023-01-24T06:40:26.913Z,103016.67
2023-01-24T06:41:28.755Z,103018.61
2023-01-24T06:42:30.637Z,103025.90
2023-01-24T06:43:32.411Z,103022.83
2023-01-24T06:44:34.201Z,103022.33
2023-01-24T06:45:36.027Z,103024.89
2023-01-24T06:46:38.025Z,103028.22
2023-01-24T06:47:39.879Z,103022.83
2023-01-24T06:48:41.670Z,103019.63
2023-01-24T06:49:43.496Z,103020.64
2023-01-24T06:50:45.429Z,103024.77
2023-01-24T06:51:47.251Z,103023.21
2023-01-24T06:52:49.048Z,103022.45
2023-01-24T06:53:50.845Z,103025.15
2023-01-24T06:54:52.665Z,103023.34
2023-01-24T06:55:54.459Z,103020.91
2023-01-24T06:56:56.377Z,103022.58
2023-01-24T06:57:58.214Z,103021.66
2023-01-24T06:59:00.031Z,103017.32
2023-01-24T07:00:01.885Z,103015.52
2023-01-24T07:01:03.772Z,103018.84
2023-01-24T07:02:05.986Z,103020.02
2023-01-24T07:03:07.862Z,103020.14
2023-01-24T07:04:09.672Z,103021.28
2023-01-24T07:05:11.531Z,103018.09
2023-01-24T07:06:13.920Z,103012.95
2023-01-24T07:07:15.788Z,103009.63
2023-01-24T07:08:21.579Z,103017.33
2023-01-24T07:09:21.187Z,103010.38
2023-01-24T07:10:23.074Z,103013.84
2023-01-24T07:11:24.855Z,103016.27
2023-01-24T07:12:26.699Z,103014.50
2023-01-24T07:13:28.509Z,103015.13
2023-01-24T07:14:30.309Z,103015.89
2023-01-24T07:15:32.101Z,103008.58
2023-01-24T07:16:36.517Z,103006.93
2023-01-24T07:17:38.704Z,103009.63
2023-01-24T07:18:40.591Z,103002.05
2023-01-24T07:19:42.394Z,103013.45
2023-01-24T07:20:44.198Z,103005.87
2023-01-24T07:21:46.036Z,103009.33
2023-01-24T07:22:47.894Z,103002.67
2023-01-24T07:23:49.763Z,103007.94
2023-01-24T07:24:51.627Z,103013.20
2023-01-24T07:25:53.444Z,103009.71
2023-01-24T07:26:55.246Z,103014.09
2023-01-24T07:27:57.092Z,103009.20
2023-01-24T07:28:59.007Z,103004.06
2023-01-24T07:30:00.805Z,103006.64
2023-01-24T07:31:02.671Z,103006.77
2023-01-24T07:32:04.563Z,103006.89
2023-01-24T07:33:06.425Z,103006.13
2023-01-24T07:34:08.213Z,103000.10
2023-01-24T07:35:10.012Z,103002.80
2023-01-24T07:36:12.009Z,103012.14
2023-01-24T07:37:13.803Z,103006.25
2023-01-24T07:38:15.651Z,103010.22
2023-01-24T07:39:17.447Z,103009.33
2023-01-24T07:40:19.226Z,103008.19
2023-01-24T07:41:21.013Z,103015.09
2023-01-24T07:42:22.819Z,103012.53
2023-01-24T07:43:24.648Z,103005.75
2023-01-24T07:44:26.513Z,103006.64
2023-01-24T07:45:28.389Z,103009.33
2023-01-24T07:46:30.209Z,103002.52
2023-01-24T07:47:32.013Z,103004.19
2023-01-24T07:48:33.845Z,103008.69
2023-01-24T07:49:35.619Z,103008.19
2023-01-24T07:50:37.529Z,103008.56
2023-01-24T07:51:39.328Z,103010.20
2023-01-24T07:52:41.119Z,103008.56
2023-01-24T07:53:42.969Z,103011.12
2023-01-24T07:54:44.761Z,103013.82
2023-01-24T07:55:56.855Z,103017.27
2023-01-24T07:56:50.156Z,103010.33
2023-01-24T07:57:51.982Z,103007.64
2023-01-24T07:58:53.962Z,103005.98
2023-01-24T07:59:55.735Z,103005.86
2023-01-24T08:00:57.554Z,103008.56
2023-01-24T08:01:59.319Z,103010.45
2023-01-24T08:03:01.157Z,103015.59
2023-01-24T08:04:02.989Z,103006.36
2023-01-24T08:05:04.796Z,103015.08
2023-01-24T08:06:07.079Z,103011.50
2023-01-24T08:07:08.873Z,103011.50
2023-01-24T08:08:10.654Z,103011.62
2023-01-24T08:09:12.478Z,103012.63
2023-01-24T08:10:14.374Z,103016.89
2023-01-24T08:11:16.170Z,103011.75
2023-01-24T08:12:17.947Z,103015.08
2023-01-24T08:13:19.754Z,103018.41
2023-01-24T08:14:21.575Z,103013.82
2023-01-24T08:15:23.494Z,103009.31
2023-01-24T08:16:25.595Z,103018.70
2023-01-24T08:17:27.399Z,103011.64
2023-01-24T08:18:29.191Z,103017.66
2023-01-24T08:19:53.851Z,103022.80
2023-01-24T08:20:34.612Z,103014.97
2023-01-24T08:21:36.398Z,103014.33
2023-01-24T08:22:48.784Z,103011.12
2023-01-24T08:23:41.897Z,103018.16
2023-01-24T08:24:43.762Z,103014.83
2023-01-24T08:25:45.641Z,103013.95
2023-01-24T08:26:47.961Z,103018.16
2023-01-24T08:27:49.791Z,103021.40
2023-01-24T08:28:51.572Z,103018.16
2023-01-24T08:29:53.397Z,103016.52
2023-01-24T08:30:55.308Z,103020.98
2023-01-24T08:31:57.123Z,103022.91
2023-01-24T08:32:58.911Z,103018.02
2023-01-24T08:34:00.702Z,103018.91
2023-01-24T08:35:02.547Z,103021.35
2023-01-24T08:36:04.314Z,103015.20
2023-01-24T08:37:06.123Z,103014.20
2023-01-24T08:38:07.940Z,103013.39
2023-01-24T08:39:13.256Z,103009.18
2023-01-24T08:40:13.452Z,103016.64
2023-01-24T08:41:15.251Z,103015.59
2023-01-24T08:42:17.095Z,103012.14
2023-01-24T08:43:18.887Z,103008.69
2023-01-24T08:44:20.666Z,103009.44
2023-01-24T08:45:22.912Z,103006.88
2023-01-24T08:46:25.125Z,103007.89
2023-01-24T08:47:28.461Z,103013.27
2023-01-24T08:48:30.476Z,103011.88
2023-01-24T08:49:32.253Z,103011.88
2023-01-24T08:50:34.205Z,103003.37
2023-01-24T08:51:36.035Z,103005.94
2023-01-24T08:52:37.886Z,103015.45
2023-01-24T08:53:39.634Z,103013.01
2023-01-24T08:54:43.584Z,103007.23
2023-01-24T08:55:45.098Z,103004.54
2023-01-24T08:56:47.022Z,103008.12
2023-01-24T08:57:48.810Z,103008.80
2023-01-24T08:58:50.618Z,103001.08
2023-01-24T08:59:52.431Z,103002.73
2023-01-24T09:00:54.274Z,103002.22
2023-01-24T09:01:56.195Z,103004.91
2023-01-24T09:02:57.983Z,102997.33
2023-01-24T09:03:59.777Z,103000.02
2023-01-24T09:05:01.618Z,102991.42
2023-01-24T09:06:03.398Z,103000.78
2023-01-24T09:07:06.252Z,102997.33
2023-01-24T09:08:08.076Z,103002.47
2023-01-24T09:09:09.870Z,102995.77
2023-01-24T09:10:11.872Z,102995.64
2023-01-24T09:11:13.707Z,102989.62
2023-01-24T09:12:15.656Z,102990.38
2023-01-24T09:13:17.471Z,102992.19
2023-01-24T09:14:19.281Z,102989.50
2023-01-24T09:15:21.517Z,102985.36
2023-01-24T09:16:23.583Z,102985.36
2023-01-24T09:17:25.466Z,102979.34
2023-01-24T09:18:27.275Z,102989.10
2023-01-24T09:19:29.095Z,102995.89
2023-01-24T09:20:30.978Z,102983.84
2023-01-24T09:21:32.930Z,102986.41
2023-01-24T09:22:34.723Z,102986.41
2023-01-24T09:23:36.540Z,102983.84
2023-01-24T09:24:38.320Z,102983.05
2023-01-24T09:25:40.128Z,102988.42
2023-01-24T09:26:41.992Z,102985.86
2023-01-24T09:27:43.802Z,102982.41
2023-01-24T09:28:45.631Z,102978.03
2023-01-24T09:29:47.413Z,102985.09
2023-01-24T09:30:49.238Z,102977.51
2023-01-24T09:31:51.128Z,102983.66
2023-01-24T09:32:53.251Z,102987.14
2023-01-24T09:33:59.881Z,102986.34
2023-01-24T09:34:58.641Z,102978.77
2023-01-24T09:36:00.447Z,102982.13
2023-01-24T09:37:02.290Z,102988.80
2023-01-24T09:38:04.104Z,102975.95
2023-01-24T09:39:06.726Z,102986.10
2023-01-24T09:40:09.691Z,102995.50
2023-01-24T09:41:11.489Z,102980.20
2023-01-24T09:42:13.375Z,102981.88
2023-01-24T09:43:15.149Z,102983.66
2023-01-24T09:44:16.945Z,102979.56
2023-01-24T09:45:18.744Z,102977.75
2023-01-24T09:46:20.548Z,102988.03
2023-01-24T09:47:22.398Z,102981.20
2023-01-24T09:48:24.233Z,102978.64
2023-01-24T09:49:26.027Z,102982.25
2023-01-24T09:50:28.033Z,102977.23
2023-01-24T09:51:29.824Z,102986.59
2023-01-24T09:52:31.648Z,102978.00
2023-01-24T09:53:33.438Z,102977.23
2023-01-24T09:54:35.256Z,102982.62
2023-01-24T09:55:37.087Z,102980.05
2023-01-24T09:56:38.985Z,102989.31
2023-01-24T09:57:40.836Z,102973.62
2023-01-24T09:58:42.643Z,102976.19
2023-01-24T09:59:44.495Z,102974.54
2023-01-24T10:00:46.487Z,102973.62
2023-01-24T10:01:48.322Z,102969.28
2023-01-24T10:02:50.137Z,102970.93
2023-01-24T10:03:51.971Z,102963.22
2023-01-24T10:04:53.802Z,102969.16
2023-01-24T10:05:55.744Z,102959.64
2023-01-24T10:06:57.843Z,102968.36
2023-01-24T10:07:59.676Z,102970.05
2023-01-24T10:09:01.576Z,102957.96
2023-01-24T10:10:03.327Z,102967.35
2023-01-24T10:11:05.139Z,102956.19
2023-01-24T10:12:07.011Z,102954.63
2023-01-24T10:13:08.859Z,102948.72
2023-01-24T10:14:10.683Z,102953.19
2023-01-24T10:15:12.568Z,102953.34
2023-01-24T10:16:14.420Z,102954.34
2023-01-24T10:17:16.144Z,102947.77
2023-01-24T10:18:17.976Z,102951.25
2023-01-24T10:19:19.840Z,102943.66
2023-01-24T10:20:21.967Z,102950.45
2023-01-24T10:21:23.844Z,102949.33
2023-01-24T10:22:25.660Z,102952.54
2023-01-24T10:23:27.500Z,102944.83
2023-01-24T10:24:29.300Z,102948.20
2023-01-24T10:25:31.083Z,102951.66
2023-01-24T10:28:14.193Z,102951.53
2023-01-24T10:29:16.140Z,102952.94
2023-01-24T10:30:18.148Z,102954.50
2023-01-24T10:31:20.025Z,102951.57
2023-01-24T10:32:37.051Z,102954.66
2023-01-24T10:33:38.888Z,102954.41
2023-01-24T10:34:40.766Z,102951.72
2023-01-24T10:35:42.576Z,102955.34
2023-01-24T10:36:44.792Z,102951.20
2023-01-24T10:37:46.607Z,102948.11
2023-01-24T10:38:48.429Z,102955.14
2023-01-24T10:39:50.283Z,102956.19
2023-01-24T10:40:52.130Z,102950.12
2023-01-24T10:41:53.933Z,102946.67
2023-01-24T10:42:55.782Z,102951.05
2023-01-24T10:43:58.185Z,102946.80
2023-01-24T10:45:00.084Z,102939.09
2023-01-24T10:46:01.941Z,102942.66
2023-01-24T10:47:03.777Z,102946.27
2023-01-24T10:48:05.607Z,102942.78
2023-01-24T10:49:07.499Z,102946.39
2023-01-24T10:50:10.282Z,102936.88
2023-01-24T10:51:12.133Z,102943.06
2023-01-24T10:52:13.933Z,102938.80
2023-01-24T10:53:26.263Z,102945.63
2023-01-24T10:54:19.358Z,102943.18
2023-01-24T10:55:21.689Z,102938.80
2023-01-24T10:56:23.689Z,102936.11
2023-01-24T10:57:25.474Z,102935.99
2023-01-24T10:58:27.289Z,102936.11
2023-01-24T10:59:29.167Z,102937.77
2023-01-24T11:00:31.110Z,102936.11
2023-01-24T11:01:32.967Z,102931.73
2023-01-24T11:02:34.885Z,102930.05
2023-01-24T11:03:36.809Z,102922.34
2023-01-24T11:04:38.619Z,102927.76
2023-01-24T11:05:40.453Z,102921.94
2023-01-24T11:06:42.237Z,102927.20
2023-01-24T11:07:44.040Z,102922.06
2023-01-24T11:08:46.019Z,102924.11
2023-01-24T11:09:47.910Z,102924.11
2023-01-24T11:10:51.436Z,102922.66
2023-01-24T11:11:53.288Z,102929.73
2023-01-24T11:12:56.248Z,102929.08
2023-01-24T11:13:58.145Z,102927.52
2023-01-24T11:14:59.919Z,102932.66
2023-01-24T11:16:01.805Z,102926.52
2023-01-24T11:17:03.650Z,102927.03
2023-01-24T11:18:05.395Z,102927.69
2023-01-24T11:19:07.579Z,102925.11
2023-01-24T11:20:09.801Z,102932.06
2023-01-24T11:21:11.639Z,102923.34
2023-01-24T11:22:13.453Z,102924.23
2023-01-24T11:23:15.234Z,102921.66
2023-01-24T11:24:17.078Z,102916.39
2023-01-24T11:25:18.839Z,102924.99
2023-01-24T11:26:20.769Z,102920.89
2023-01-24T11:27:22.565Z,102917.52
2023-01-24T11:28:24.369Z,102921.02
2023-01-24T11:29:26.153Z,102926.52
2023-01-24T11:30:28.072Z,102924.17
2023-01-24T11:31:29.990Z,102925.18
2023-01-24T11:32:31.781Z,102926.98
2023-01-24T11:33:33.558Z,102921.08
2023-01-24T11:34:35.344Z,102920.28
2023-01-24T11:35:37.185Z,102923.65
2023-01-24T11:36:39.131Z,102926.34
2023-01-24T11:37:40.954Z,102924.00
2023-01-24T11:38:42.728Z,102917.70
2023-01-24T11:39:44.548Z,102924.30
2023-01-24T11:40:46.431Z,102926.75
2023-01-24T11:41:48.236Z,102930.20
2023-01-24T11:42:50.021Z,102921.61
2023-01-24T11:43:51.823Z,102921.48
2023-01-24T11:44:53.638Z,102918.91
2023-01-24T11:45:55.609Z,102919.80
2023-01-24T11:46:57.474Z,102919.92
2023-01-24T11:47:59.230Z,102923.26